sensor_id;sensor_type;location;lat;lon;timestamp;P1;durP1;ratioP1;P2;durP2;ratioP2
21624;SDS011;10974;51.034;3.744;2023-01-09T04:19:15;8.87;;;1.70;;
21624;SDS011;10974;51.034;3.744;2023-01-09T04:21:41;3.77;;;1.60;;
21624;SDS011;10974;51.034;3.744;2023-01-09T04:24:07;6.43;;;1.43;;
21624;SDS011;10974;51.034;3.744;2023-01-09T04:26:33;6.40;;;1.77;;
21624;SDS011;10974;51.034;3.744;2023-01-09T04:28:59;7.37;;;1.97;;
21624;SDS011;10974;51.034;3.744;2023-01-09T04:31:25;4.17;;;1.57;;
21624;SDS011;10974;51.034;3.744;2023-01-09T04:33:51;7.37;;;1.97;;
21624;SDS011;10974;51.034;3.744;2023-01-09T04:36:18;4.53;;;1.57;;
21624;SDS011;10974;51.034;3.744;2023-01-09T04:38:44;5.10;;;1.47;;
21624;SDS011;10974;51.034;3.744;2023-01-09T04:41:10;6.20;;;1.87;;
21624;SDS011;10974;51.034;3.744;2023-01-09T04:43:56;9.37;;;2.20;;
21624;SDS011;10974;51.034;3.744;2023-01-09T04:46:22;11.80;;;2.13;;
21624;SDS011;10974;51.034;3.744;2023-01-09T04:48:48;5.13;;;1.80;;
21624;SDS011;10974;51.034;3.744;2023-01-09T04:51:14;8.27;;;1.83;;
21624;SDS011;10974;51.034;3.744;2023-01-09T04:53:40;4.40;;;1.77;;
21624;SDS011;10974;51.034;3.744;2023-01-09T04:56:06;8.90;;;1.80;;
21624;SDS011;10974;51.034;3.744;2023-01-09T04:58:32;5.77;;;1.50;;
21624;SDS011;10974;51.034;3.744;2023-01-09T05:00:58;9.10;;;2.30;;
21624;SDS011;10974;51.034;3.744;2023-01-09T05:03:24;5.60;;;1.83;;
21624;SDS011;10974;51.034;3.744;2023-01-09T05:05:50;7.13;;;1.60;;
21624;SDS011;10974;51.034;3.744;2023-01-09T05:08:16;7.97;;;2.10;;
21624;SDS011;10974;51.034;3.744;2023-01-09T05:10:42;4.57;;;1.80;;
21624;SDS011;10974;51.034;3.744;2023-01-09T05:13:08;5.37;;;1.80;;
21624;SDS011;10974;51.034;3.744;2023-01-09T05:15:34;5.73;;;1.53;;
21624;SDS011;10974;51.034;3.744;2023-01-09T05:18:00;9.87;;;2.03;;
21624;SDS011;10974;51.034;3.744;2023-01-09T05:20:26;7.57;;;1.90;;
21624;SDS011;10974;51.034;3.744;2023-01-09T05:22:52;2.17;;;1.70;;
21624;SDS011;10974;51.034;3.744;2023-01-09T05:25:18;11.23;;;2.57;;
21624;SDS011;10974;51.034;3.744;2023-01-09T05:27:44;4.47;;;1.80;;
21624;SDS011;10974;51.034;3.744;2023-01-09T05:30:12;7.97;;;1.97;;
21624;SDS011;10974;51.034;3.744;2023-01-09T05:32:38;4.63;;;1.90;;
21624;SDS011;10974;51.034;3.744;2023-01-09T05:35:04;7.90;;;1.87;;
21624;SDS011;10974;51.034;3.744;2023-01-09T05:37:30;7.30;;;2.00;;
21624;SDS011;10974;51.034;3.744;2023-01-09T05:39:56;6.90;;;1.90;;
21624;SDS011;10974;51.034;3.744;2023-01-09T05:42:22;9.07;;;2.50;;
21624;SDS011;10974;51.034;3.744;2023-01-09T05:44:48;6.23;;;1.80;;
21624;SDS011;10974;51.034;3.744;2023-01-09T05:47:14;8.67;;;2.20;;
21624;SDS011;10974;51.034;3.744;2023-01-09T05:49:40;8.90;;;1.80;;
21624;SDS011;10974;51.034;3.744;2023-01-09T05:52:07;5.80;;;1.87;;
21624;SDS011;10974;51.034;3.744;2023-01-09T05:54:33;9.63;;;2.53;;
21624;SDS011;10974;51.034;3.744;2023-01-09T05:56:59;11.80;;;2.07;;
21624;SDS011;10974;51.034;3.744;2023-01-09T05:59:25;9.40;;;2.03;;
21624;SDS011;10974;51.034;3.744;2023-01-09T06:01:51;8.47;;;2.23;;
21624;SDS011;10974;51.034;3.744;2023-01-09T06:04:18;6.90;;;1.90;;
21624;SDS011;10974;51.034;3.744;2023-01-09T06:06:44;5.53;;;1.80;;
21624;SDS011;10974;51.034;3.744;2023-01-09T06:09:10;8.63;;;2.50;;
21624;SDS011;10974;51.034;3.744;2023-01-09T06:11:36;9.43;;;1.80;;
21624;SDS011;10974;51.034;3.744;2023-01-09T06:14:03;5.47;;;1.60;;
21624;SDS011;10974;51.034;3.744;2023-01-09T06:16:29;8.27;;;2.07;;
21624;SDS011;10974;51.034;3.744;2023-01-09T06:18:55;3.77;;;1.40;;
21624;SDS011;10974;51.034;3.744;2023-01-09T06:21:21;8.60;;;2.50;;
21624;SDS011;10974;51.034;3.744;2023-01-09T06:23:47;8.13;;;2.30;;
21624;SDS011;10974;51.034;3.744;2023-01-09T06:26:14;8.67;;;2.00;;
21624;SDS011;10974;51.034;3.744;2023-01-09T06:28:40;5.57;;;2.00;;
21624;SDS011;10974;51.034;3.744;2023-01-09T06:31:06;5.60;;;2.03;;
21624;SDS011;10974;51.034;3.744;2023-01-09T06:33:32;9.60;;;2.53;;
21624;SDS011;10974;51.034;3.744;2023-01-09T06:35:58;15.03;;;2.30;;
21624;SDS011;10974;51.034;3.744;2023-01-09T06:38:24;6.37;;;2.50;;
21624;SDS011;10974;51.034;3.744;2023-01-09T06:40:50;5.40;;;1.93;;
21624;SDS011;10974;51.034;3.744;2023-01-09T06:43:16;6.83;;;2.13;;
21624;SDS011;10974;51.034;3.744;2023-01-09T06:45:42;5.57;;;2.00;;
21624;SDS011;10974;51.034;3.744;2023-01-09T06:48:08;13.20;;;2.63;;
21624;SDS011;10974;51.034;3.744;2023-01-09T06:50:35;4.10;;;1.90;;
21624;SDS011;10974;51.034;3.744;2023-01-09T06:53:01;8.00;;;1.80;;
21624;SDS011;10974;51.034;3.744;2023-01-09T06:55:27;7.87;;;2.00;;
21624;SDS011;10974;51.034;3.744;2023-01-09T06:57:53;12.43;;;2.23;;
21624;SDS011;10974;51.034;3.744;2023-01-09T07:00:19;5.70;;;2.00;;
21624;SDS011;10974;51.034;3.744;2023-01-09T07:02:45;5.53;;;1.30;;
21624;SDS011;10974;51.034;3.744;2023-01-09T07:05:11;6.30;;;1.90;;
21624;SDS011;10974;51.034;3.744;2023-01-09T07:07:38;7.10;;;1.60;;
21624;SDS011;10974;51.034;3.744;2023-01-09T07:10:04;6.07;;;2.20;;
21624;SDS011;10974;51.034;3.744;2023-01-09T07:12:30;5.90;;;1.97;;
21624;SDS011;10974;51.034;3.744;2023-01-09T07:14:56;8.97;;;2.77;;
21624;SDS011;10974;51.034;3.744;2023-01-09T07:17:22;8.00;;;2.00;;
21624;SDS011;10974;51.034;3.744;2023-01-09T07:19:48;6.10;;;1.90;;
21624;SDS011;10974;51.034;3.744;2023-01-09T07:22:14;7.93;;;1.70;;
21624;SDS011;10974;51.034;3.744;2023-01-09T07:24:40;4.87;;;1.60;;
21624;SDS011;10974;51.034;3.744;2023-01-09T07:27:08;9.27;;;2.07;;
21624;SDS011;10974;51.034;3.744;2023-01-09T07:29:34;5.47;;;1.87;;
21624;SDS011;10974;51.034;3.744;2023-01-09T07:32:01;7.77;;;2.00;;
21624;SDS011;10974;51.034;3.744;2023-01-09T07:34:27;4.23;;;1.90;;
21624;SDS011;10974;51.034;3.744;2023-01-09T07:36:53;9.20;;;2.07;;
21624;SDS011;10974;51.034;3.744;2023-01-09T07:39:19;8.67;;;2.13;;
21624;SDS011;10974;51.034;3.744;2023-01-09T07:41:45;9.70;;;2.10;;
21624;SDS011;10974;51.034;3.744;2023-01-09T07:44:11;7.57;;;1.80;;
21624;SDS011;10974;51.034;3.744;2023-01-09T07:46:38;8.83;;;2.23;;
21624;SDS011;10974;51.034;3.744;2023-01-09T07:49:04;8.93;;;2.50;;
21624;SDS011;10974;51.034;3.744;2023-01-09T07:51:30;3.83;;;1.80;;
21624;SDS011;10974;51.034;3.744;2023-01-09T07:53:56;4.77;;;1.83;;
21624;SDS011;10974;51.034;3.744;2023-01-09T07:56:22;5.50;;;1.90;;
21624;SDS011;10974;51.034;3.744;2023-01-09T07:58:48;5.83;;;1.90;;
21624;SDS011;10974;51.034;3.744;2023-01-09T08:01:14;9.20;;;1.90;;
21624;SDS011;10974;51.034;3.744;2023-01-09T08:03:40;7.27;;;1.70;;
21624;SDS011;10974;51.034;3.744;2023-01-09T08:06:06;8.20;;;2.00;;
21624;SDS011;10974;51.034;3.744;2023-01-09T08:08:32;6.87;;;1.80;;
21624;SDS011;10974;51.034;3.744;2023-01-09T08:10:58;3.73;;;1.53;;
21624;SDS011;10974;51.034;3.744;2023-01-09T08:13:24;3.10;;;1.80;;
21624;SDS011;10974;51.034;3.744;2023-01-09T08:15:50;6.97;;;2.10;;
21624;SDS011;10974;51.034;3.744;2023-01-09T08:18:16;6.63;;;1.73;;
21624;SDS011;10974;51.034;3.744;2023-01-09T08:20:42;5.33;;;1.77;;
21624;SDS011;10974;51.034;3.744;2023-01-09T08:23:08;8.53;;;1.80;;
21624;SDS011;10974;51.034;3.744;2023-01-09T08:25:34;8.07;;;2.63;;
21624;SDS011;10974;51.034;3.744;2023-01-09T08:28:00;4.83;;;1.73;;
21624;SDS011;10974;51.034;3.744;2023-01-09T08:30:26;5.70;;;1.80;;
21624;SDS011;10974;51.034;3.744;2023-01-09T08:32:52;4.60;;;2.17;;
21624;SDS011;10974;51.034;3.744;2023-01-09T08:35:19;5.60;;;1.90;;
21624;SDS011;10974;51.034;3.744;2023-01-09T08:37:45;4.40;;;2.03;;
21624;SDS011;10974;51.034;3.744;2023-01-09T08:40:12;7.97;;;2.00;;
21624;SDS011;10974;51.034;3.744;2023-01-09T08:42:38;4.80;;;1.60;;
21624;SDS011;10974;51.034;3.744;2023-01-09T08:45:23;6.80;;;1.90;;
21624;SDS011;10974;51.034;3.744;2023-01-09T08:48:08;7.57;;;2.17;;
21624;SDS011;10974;51.034;3.744;2023-01-09T08:50:34;6.43;;;1.93;;
21624;SDS011;10974;51.034;3.744;2023-01-09T08:53:01;6.20;;;1.93;;
21624;SDS011;10974;51.034;3.744;2023-01-09T08:55:27;6.50;;;2.10;;
21624;SDS011;10974;51.034;3.744;2023-01-09T08:57:53;5.70;;;1.90;;
21624;SDS011;10974;51.034;3.744;2023-01-09T09:00:20;6.17;;;1.93;;
21624;SDS011;10974;51.034;3.744;2023-01-09T09:02:50;7.13;;;2.10;;
21624;SDS011;10974;51.034;3.744;2023-01-09T09:05:17;5.20;;;1.60;;
21624;SDS011;10974;51.034;3.744;2023-01-09T09:07:43;5.93;;;1.80;;
21624;SDS011;10974;51.034;3.744;2023-01-09T09:10:09;6.10;;;1.80;;
21624;SDS011;10974;51.034;3.744;2023-01-09T09:12:35;6.10;;;1.70;;
21624;SDS011;10974;51.034;3.744;2023-01-09T09:15:01;6.53;;;1.67;;
21624;SDS011;10974;51.034;3.744;2023-01-09T09:17:36;4.97;;;2.00;;
21624;SDS011;10974;51.034;3.744;2023-01-09T09:20:02;8.33;;;2.20;;
21624;SDS011;10974;51.034;3.744;2023-01-09T09:22:28;4.37;;;1.53;;
21624;SDS011;10974;51.034;3.744;2023-01-09T09:24:55;9.40;;;2.10;;
21624;SDS011;10974;51.034;3.744;2023-01-09T09:27:21;4.00;;;1.90;;
21624;SDS011;10974;51.034;3.744;2023-01-09T09:29:47;3.33;;;1.33;;
21624;SDS011;10974;51.034;3.744;2023-01-09T09:32:13;5.10;;;1.73;;
21624;SDS011;10974;51.034;3.744;2023-01-09T09:34:39;8.00;;;2.00;;
21624;SDS011;10974;51.034;3.744;2023-01-09T09:37:05;4.10;;;1.77;;
21624;SDS011;10974;51.034;3.744;2023-01-09T09:39:31;4.83;;;1.53;;
21624;SDS011;10974;51.034;3.744;2023-01-09T09:50:25;3.07;;;1.40;;
21624;SDS011;10974;51.034;3.744;2023-01-09T09:53:55;5.77;;;1.70;;
21624;SDS011;10974;51.034;3.744;2023-01-09T09:55:49;3.87;;;1.50;;
21624;SDS011;10974;51.034;3.744;2023-01-09T10:00:41;3.37;;;1.77;;
21624;SDS011;10974;51.034;3.744;2023-01-09T10:03:12;5.07;;;1.40;;
21624;SDS011;10974;51.034;3.744;2023-01-09T10:05:39;6.00;;;1.83;;
21624;SDS011;10974;51.034;3.744;2023-01-09T10:08:12;2.70;;;1.63;;
21624;SDS011;10974;51.034;3.744;2023-01-09T10:10:45;4.33;;;1.83;;
21624;SDS011;10974;51.034;3.744;2023-01-09T10:13:15;4.20;;;1.70;;
21624;SDS011;10974;51.034;3.744;2023-01-09T10:18:29;6.27;;;1.93;;
21624;SDS011;10974;51.034;3.744;2023-01-09T10:21:00;4.47;;;1.80;;
21624;SDS011;10974;51.034;3.744;2023-01-09T10:23:46;9.30;;;2.80;;
21624;SDS011;10974;51.034;3.744;2023-01-09T10:34:21;7.63;;;2.03;;
21624;SDS011;10974;51.034;3.744;2023-01-09T10:39:20;6.30;;;1.67;;
21624;SDS011;10974;51.034;3.744;2023-01-09T10:41:51;3.40;;;1.87;;
21624;SDS011;10974;51.034;3.744;2023-01-09T10:44:42;5.93;;;2.10;;
21624;SDS011;10974;51.034;3.744;2023-01-09T10:47:08;7.23;;;2.13;;
21624;SDS011;10974;51.034;3.744;2023-01-09T10:49:37;6.13;;;2.00;;
21624;SDS011;10974;51.034;3.744;2023-01-09T10:52:10;5.70;;;2.03;;
21624;SDS011;10974;51.034;3.744;2023-01-09T10:54:41;8.83;;;3.07;;
21624;SDS011;10974;51.034;3.744;2023-01-09T10:57:11;4.70;;;1.73;;
21624;SDS011;10974;51.034;3.744;2023-01-09T10:59:38;6.20;;;2.00;;
21624;SDS011;10974;51.034;3.744;2023-01-09T11:02:07;4.87;;;2.50;;
21624;SDS011;10974;51.034;3.744;2023-01-09T11:04:43;7.60;;;2.37;;
21624;SDS011;10974;51.034;3.744;2023-01-09T11:07:17;8.40;;;2.67;;
21624;SDS011;10974;51.034;3.744;2023-01-09T11:09:54;9.40;;;2.60;;
21624;SDS011;10974;51.034;3.744;2023-01-09T11:12:28;7.27;;;2.17;;
21624;SDS011;10974;51.034;3.744;2023-01-09T11:14:54;8.43;;;3.13;;
21624;SDS011;10974;51.034;3.744;2023-01-09T11:17:21;5.77;;;2.13;;
21624;SDS011;10974;51.034;3.744;2023-01-09T11:20:03;5.23;;;2.20;;
21624;SDS011;10974;51.034;3.744;2023-01-09T11:22:40;12.10;;;2.77;;
21624;SDS011;10974;51.034;3.744;2023-01-09T11:25:10;7.27;;;2.50;;
21624;SDS011;10974;51.034;3.744;2023-01-09T11:27:36;5.33;;;2.20;;
21624;SDS011;10974;51.034;3.744;2023-01-09T11:30:04;3.53;;;2.10;;
21624;SDS011;10974;51.034;3.744;2023-01-09T11:32:30;9.03;;;2.27;;
21624;SDS011;10974;51.034;3.744;2023-01-09T11:34:56;9.67;;;2.60;;
21624;SDS011;10974;51.034;3.744;2023-01-09T11:37:29;10.30;;;2.73;;
21624;SDS011;10974;51.034;3.744;2023-01-09T11:39:59;5.47;;;2.10;;
21624;SDS011;10974;51.034;3.744;2023-01-09T11:42:26;11.43;;;2.83;;
21624;SDS011;10974;51.034;3.744;2023-01-09T11:47:43;8.70;;;2.00;;
21624;SDS011;10974;51.034;3.744;2023-01-09T11:50:16;11.93;;;2.53;;
21624;SDS011;10974;51.034;3.744;2023-01-09T11:52:43;6.47;;;2.13;;
21624;SDS011;10974;51.034;3.744;2023-01-09T11:55:10;4.70;;;2.57;;
21624;SDS011;10974;51.034;3.744;2023-01-09T11:57:37;6.57;;;3.00;;
21624;SDS011;10974;51.034;3.744;2023-01-09T12:00:09;14.27;;;3.40;;
21624;SDS011;10974;51.034;3.744;2023-01-09T12:02:47;9.33;;;3.37;;
21624;SDS011;10974;51.034;3.744;2023-01-09T12:05:35;9.13;;;3.07;;
21624;SDS011;10974;51.034;3.744;2023-01-09T12:10:39;6.53;;;2.70;;
21624;SDS011;10974;51.034;3.744;2023-01-09T12:46:22;9.63;;;3.30;;
21624;SDS011;10974;51.034;3.744;2023-01-09T12:54:24;10.93;;;2.87;;
21624;SDS011;10974;51.034;3.744;2023-01-09T12:56:54;8.07;;;2.60;;
21624;SDS011;10974;51.034;3.744;2023-01-09T13:01:59;11.53;;;3.07;;
21624;SDS011;10974;51.034;3.744;2023-01-09T13:04:32;13.97;;;3.20;;
21624;SDS011;10974;51.034;3.744;2023-01-09T13:07:01;11.50;;;3.27;;
21624;SDS011;10974;51.034;3.744;2023-01-09T13:10:13;9.60;;;3.10;;
21624;SDS011;10974;51.034;3.744;2023-01-09T13:12:20;15.03;;;2.97;;
21624;SDS011;10974;51.034;3.744;2023-01-09T13:14:50;9.37;;;3.60;;
21624;SDS011;10974;51.034;3.744;2023-01-09T13:17:22;9.10;;;3.20;;
21624;SDS011;10974;51.034;3.744;2023-01-09T13:19:48;7.80;;;2.70;;
21624;SDS011;10974;51.034;3.744;2023-01-09T13:22:14;11.97;;;2.87;;
21624;SDS011;10974;51.034;3.744;2023-01-09T13:27:15;8.57;;;2.70;;
21624;SDS011;10974;51.034;3.744;2023-01-09T13:30:05;9.73;;;2.27;;
21624;SDS011;10974;51.034;3.744;2023-01-09T13:32:33;7.73;;;2.27;;
21624;SDS011;10974;51.034;3.744;2023-01-09T13:35:01;5.40;;;2.40;;
21624;SDS011;10974;51.034;3.744;2023-01-09T13:37:28;9.63;;;3.00;;
21624;SDS011;10974;51.034;3.744;2023-01-09T13:40:05;14.63;;;4.10;;
21624;SDS011;10974;51.034;3.744;2023-01-09T13:42:32;8.40;;;2.47;;
21624;SDS011;10974;51.034;3.744;2023-01-09T13:47:42;8.33;;;3.17;;
21624;SDS011;10974;51.034;3.744;2023-01-09T13:52:35;6.63;;;2.40;;
21624;SDS011;10974;51.034;3.744;2023-01-09T13:55:19;11.37;;;3.50;;
21624;SDS011;10974;51.034;3.744;2023-01-09T14:03:10;5.87;;;2.20;;
21624;SDS011;10974;51.034;3.744;2023-01-09T14:08:20;8.43;;;2.40;;
21624;SDS011;10974;51.034;3.744;2023-01-09T14:10:51;8.07;;;3.00;;
21624;SDS011;10974;51.034;3.744;2023-01-09T14:13:22;8.17;;;2.60;;
21624;SDS011;10974;51.034;3.744;2023-01-09T14:15:49;10.07;;;2.77;;
21624;SDS011;10974;51.034;3.744;2023-01-09T14:18:16;7.63;;;2.40;;
21624;SDS011;10974;51.034;3.744;2023-01-09T14:23:25;8.40;;;2.50;;
21624;SDS011;10974;51.034;3.744;2023-01-09T14:25:52;8.13;;;2.07;;
21624;SDS011;10974;51.034;3.744;2023-01-09T14:28:22;8.67;;;2.77;;
21624;SDS011;10974;51.034;3.744;2023-01-09T14:41:15;5.30;;;2.23;;
21624;SDS011;10974;51.034;3.744;2023-01-09T14:43:53;8.40;;;2.33;;
21624;SDS011;10974;51.034;3.744;2023-01-09T14:46:21;6.27;;;2.60;;
21624;SDS011;10974;51.034;3.744;2023-01-09T14:51:34;5.67;;;2.40;;
21624;SDS011;10974;51.034;3.744;2023-01-09T14:54:12;12.60;;;2.40;;
21624;SDS011;10974;51.034;3.744;2023-01-09T14:56:44;4.93;;;2.10;;
21624;SDS011;10974;51.034;3.744;2023-01-09T14:59:11;9.03;;;2.20;;
21624;SDS011;10974;51.034;3.744;2023-01-09T15:01:39;5.17;;;1.93;;
21624;SDS011;10974;51.034;3.744;2023-01-09T15:04:09;4.60;;;2.17;;
21624;SDS011;10974;51.034;3.744;2023-01-09T15:06:41;4.70;;;2.07;;
21624;SDS011;10974;51.034;3.744;2023-01-09T15:09:13;6.30;;;2.37;;
21624;SDS011;10974;51.034;3.744;2023-01-09T15:11:40;9.83;;;2.90;;
21624;SDS011;10974;51.034;3.744;2023-01-09T15:14:07;6.80;;;2.63;;
21624;SDS011;10974;51.034;3.744;2023-01-09T15:16:38;6.10;;;2.57;;
21624;SDS011;10974;51.034;3.744;2023-01-09T15:19:05;4.20;;;2.20;;
21624;SDS011;10974;51.034;3.744;2023-01-09T15:21:32;4.17;;;1.70;;
21624;SDS011;10974;51.034;3.744;2023-01-09T15:26:43;5.73;;;1.97;;
21624;SDS011;10974;51.034;3.744;2023-01-09T15:29:16;8.40;;;1.80;;
21624;SDS011;10974;51.034;3.744;2023-01-09T15:31:45;4.60;;;1.77;;
21624;SDS011;10974;51.034;3.744;2023-01-09T15:34:19;5.63;;;1.70;;
21624;SDS011;10974;51.034;3.744;2023-01-09T15:36:45;5.90;;;2.33;;
21624;SDS011;10974;51.034;3.744;2023-01-09T15:39:20;4.00;;;1.90;;
21624;SDS011;10974;51.034;3.744;2023-01-09T15:41:47;4.50;;;2.23;;
21624;SDS011;10974;51.034;3.744;2023-01-09T15:44:32;6.73;;;1.73;;
21624;SDS011;10974;51.034;3.744;2023-01-09T15:47:02;3.60;;;1.73;;
21624;SDS011;10974;51.034;3.744;2023-01-09T15:49:29;3.13;;;1.60;;
21624;SDS011;10974;51.034;3.744;2023-01-09T15:51:56;3.90;;;1.87;;
21624;SDS011;10974;51.034;3.744;2023-01-09T15:54:31;3.47;;;1.60;;
21624;SDS011;10974;51.034;3.744;2023-01-09T15:59:43;5.23;;;2.17;;
21624;SDS011;10974;51.034;3.744;2023-01-09T16:02:10;6.57;;;3.20;;
21624;SDS011;10974;51.034;3.744;2023-01-09T16:04:56;8.73;;;2.27;;
21624;SDS011;10974;51.034;3.744;2023-01-09T16:07:22;5.60;;;2.50;;
21624;SDS011;10974;51.034;3.744;2023-01-09T16:09:48;8.90;;;2.00;;
21624;SDS011;10974;51.034;3.744;2023-01-09T16:12:24;4.33;;;2.30;;
21624;SDS011;10974;51.034;3.744;2023-01-09T16:14:53;3.93;;;2.23;;
21624;SDS011;10974;51.034;3.744;2023-01-09T16:17:19;5.40;;;2.90;;
21624;SDS011;10974;51.034;3.744;2023-01-09T16:19:53;7.13;;;2.87;;
21624;SDS011;10974;51.034;3.744;2023-01-09T16:22:23;7.93;;;3.13;;
21624;SDS011;10974;51.034;3.744;2023-01-09T16:24:49;4.23;;;2.27;;
21624;SDS011;10974;51.034;3.744;2023-01-09T16:27:22;7.77;;;2.63;;
21624;SDS011;10974;51.034;3.744;2023-01-09T16:29:54;6.53;;;3.13;;
21624;SDS011;10974;51.034;3.744;2023-01-09T16:32:30;12.23;;;3.00;;
21624;SDS011;10974;51.034;3.744;2023-01-09T16:35:12;5.47;;;2.80;;
21624;SDS011;10974;51.034;3.744;2023-01-09T16:37:38;6.70;;;3.20;;
21624;SDS011;10974;51.034;3.744;2023-01-09T16:42:50;11.33;;;3.73;;
21624;SDS011;10974;51.034;3.744;2023-01-09T16:47:53;10.13;;;4.23;;
21624;SDS011;10974;51.034;3.744;2023-01-09T16:50:21;9.60;;;3.77;;
21624;SDS011;10974;51.034;3.744;2023-01-09T16:52:48;7.37;;;3.53;;
21624;SDS011;10974;51.034;3.744;2023-01-09T16:55:14;6.37;;;3.43;;
21624;SDS011;10974;51.034;3.744;2023-01-09T16:57:40;8.40;;;3.70;;
21624;SDS011;10974;51.034;3.744;2023-01-09T17:00:14;13.60;;;3.40;;
21624;SDS011;10974;51.034;3.744;2023-01-09T17:02:40;9.47;;;3.57;;
21624;SDS011;10974;51.034;3.744;2023-01-09T17:05:06;5.73;;;2.60;;
21624;SDS011;10974;51.034;3.744;2023-01-09T17:07:32;9.13;;;2.53;;
21624;SDS011;10974;51.034;3.744;2023-01-09T17:09:58;6.20;;;2.40;;
21624;SDS011;10974;51.034;3.744;2023-01-09T17:12:25;5.63;;;2.10;;
21624;SDS011;10974;51.034;3.744;2023-01-09T17:14:52;4.93;;;1.63;;
21624;SDS011;10974;51.034;3.744;2023-01-09T17:17:18;2.10;;;1.70;;
21624;SDS011;10974;51.034;3.744;2023-01-09T17:19:47;1.97;;;1.30;;
21624;SDS011;10974;51.034;3.744;2023-01-09T17:22:13;1.87;;;1.60;;
21624;SDS011;10974;51.034;3.744;2023-01-09T17:24:40;2.70;;;1.40;;
21624;SDS011;10974;51.034;3.744;2023-01-09T17:27:26;3.60;;;1.63;;
21624;SDS011;10974;51.034;3.744;2023-01-09T17:30:12;5.83;;;2.10;;
21624;SDS011;10974;51.034;3.744;2023-01-09T17:32:38;3.27;;;1.20;;
21624;SDS011;10974;51.034;3.744;2023-01-09T17:35:04;5.50;;;1.83;;
21624;SDS011;10974;51.034;3.744;2023-01-09T17:37:30;3.57;;;1.50;;
21624;SDS011;10974;51.034;3.744;2023-01-09T17:39:56;6.00;;;1.80;;
21624;SDS011;10974;51.034;3.744;2023-01-09T17:42:27;4.53;;;1.80;;
21624;SDS011;10974;51.034;3.744;2023-01-09T17:44:53;3.93;;;1.93;;
21624;SDS011;10974;51.034;3.744;2023-01-09T17:47:20;4.97;;;1.90;;
21624;SDS011;10974;51.034;3.744;2023-01-09T17:49:46;10.70;;;5.33;;
21624;SDS011;10974;51.034;3.744;2023-01-09T17:52:13;11.30;;;5.27;;
21624;SDS011;10974;51.034;3.744;2023-01-09T17:54:39;10.43;;;5.20;;
21624;SDS011;10974;51.034;3.744;2023-01-09T17:57:08;8.97;;;4.17;;
21624;SDS011;10974;51.034;3.744;2023-01-09T17:59:35;5.50;;;2.30;;
21624;SDS011;10974;51.034;3.744;2023-01-09T18:02:01;4.73;;;2.00;;
21624;SDS011;10974;51.034;3.744;2023-01-09T18:04:28;5.30;;;2.77;;
21624;SDS011;10974;51.034;3.744;2023-01-09T18:06:54;6.83;;;2.40;;
21624;SDS011;10974;51.034;3.744;2023-01-09T18:09:20;3.60;;;2.10;;
21624;SDS011;10974;51.034;3.744;2023-01-09T18:11:46;7.27;;;2.27;;
21624;SDS011;10974;51.034;3.744;2023-01-09T18:14:12;4.63;;;2.17;;
21624;SDS011;10974;51.034;3.744;2023-01-09T18:16:38;4.10;;;1.93;;
21624;SDS011;10974;51.034;3.744;2023-01-09T18:19:04;8.07;;;2.40;;
21624;SDS011;10974;51.034;3.744;2023-01-09T18:21:30;5.83;;;2.40;;
21624;SDS011;10974;51.034;3.744;2023-01-09T18:23:56;4.80;;;2.17;;
21624;SDS011;10974;51.034;3.744;2023-01-09T18:26:23;6.43;;;1.97;;
21624;SDS011;10974;51.034;3.744;2023-01-09T18:28:50;6.63;;;2.80;;
21624;SDS011;10974;51.034;3.744;2023-01-09T18:31:17;4.77;;;2.27;;
21624;SDS011;10974;51.034;3.744;2023-01-09T18:33:46;8.33;;;3.60;;
21624;SDS011;10974;51.034;3.744;2023-01-09T18:36:16;5.70;;;2.20;;
21624;SDS011;10974;51.034;3.744;2023-01-09T18:38:42;9.27;;;2.20;;
21624;SDS011;10974;51.034;3.744;2023-01-09T18:41:08;6.33;;;1.97;;
21624;SDS011;10974;51.034;3.744;2023-01-09T18:43:34;6.13;;;2.23;;
21624;SDS011;10974;51.034;3.744;2023-01-09T18:46:04;5.27;;;2.10;;
21624;SDS011;10974;51.034;3.744;2023-01-09T18:48:31;6.17;;;2.37;;
21624;SDS011;10974;51.034;3.744;2023-01-09T18:51:06;6.93;;;2.63;;
21624;SDS011;10974;51.034;3.744;2023-01-09T18:53:32;8.97;;;2.63;;
21624;SDS011;10974;51.034;3.744;2023-01-09T18:56:02;11.40;;;2.97;;
21624;SDS011;10974;51.034;3.744;2023-01-09T18:58:28;6.13;;;2.73;;
21624;SDS011;10974;51.034;3.744;2023-01-09T19:00:57;7.43;;;3.10;;
21624;SDS011;10974;51.034;3.744;2023-01-09T19:03:23;8.90;;;3.10;;
21624;SDS011;10974;51.034;3.744;2023-01-09T19:05:49;9.00;;;2.63;;
21624;SDS011;10974;51.034;3.744;2023-01-09T19:08:15;10.20;;;3.23;;
21624;SDS011;10974;51.034;3.744;2023-01-09T19:10:41;6.17;;;3.00;;
21624;SDS011;10974;51.034;3.744;2023-01-09T19:13:08;6.93;;;2.77;;
21624;SDS011;10974;51.034;3.744;2023-01-09T19:15:34;10.00;;;3.20;;
21624;SDS011;10974;51.034;3.744;2023-01-09T19:18:00;8.03;;;3.07;;
21624;SDS011;10974;51.034;3.744;2023-01-09T19:20:26;6.17;;;2.70;;
21624;SDS011;10974;51.034;3.744;2023-01-09T19:22:54;8.50;;;3.20;;
21624;SDS011;10974;51.034;3.744;2023-01-09T19:25:20;7.10;;;4.03;;
21624;SDS011;10974;51.034;3.744;2023-01-09T19:27:46;7.47;;;3.30;;
21624;SDS011;10974;51.034;3.744;2023-01-09T19:30:12;10.57;;;3.73;;
21624;SDS011;10974;51.034;3.744;2023-01-09T19:32:39;10.90;;;4.90;;
21624;SDS011;10974;51.034;3.744;2023-01-09T19:35:05;13.30;;;3.90;;
21624;SDS011;10974;51.034;3.744;2023-01-09T19:37:31;9.50;;;4.83;;
21624;SDS011;10974;51.034;3.744;2023-01-09T19:39:59;9.60;;;3.70;;
21624;SDS011;10974;51.034;3.744;2023-01-09T19:42:25;8.47;;;3.43;;
21624;SDS011;10974;51.034;3.744;2023-01-09T19:44:51;6.47;;;3.10;;
21624;SDS011;10974;51.034;3.744;2023-01-09T19:47:17;6.27;;;3.13;;
21624;SDS011;10974;51.034;3.744;2023-01-09T19:49:43;9.43;;;3.87;;
21624;SDS011;10974;51.034;3.744;2023-01-09T19:52:09;7.10;;;3.00;;
21624;SDS011;10974;51.034;3.744;2023-01-09T19:54:35;8.00;;;3.00;;
21624;SDS011;10974;51.034;3.744;2023-01-09T19:57:01;9.33;;;3.13;;
21624;SDS011;10974;51.034;3.744;2023-01-09T19:59:27;9.57;;;3.17;;
21624;SDS011;10974;51.034;3.744;2023-01-09T20:01:53;6.80;;;3.37;;
21624;SDS011;10974;51.034;3.744;2023-01-09T20:04:19;6.20;;;3.63;;
21624;SDS011;10974;51.034;3.744;2023-01-09T20:06:46;8.63;;;3.97;;
21624;SDS011;10974;51.034;3.744;2023-01-09T20:09:14;11.17;;;4.00;;
21624;SDS011;10974;51.034;3.744;2023-01-09T20:11:40;10.20;;;4.07;;
21624;SDS011;10974;51.034;3.744;2023-01-09T20:14:12;13.03;;;4.63;;
21624;SDS011;10974;51.034;3.744;2023-01-09T20:16:38;12.07;;;4.23;;
21624;SDS011;10974;51.034;3.744;2023-01-09T20:19:04;8.60;;;3.53;;
21624;SDS011;10974;51.034;3.744;2023-01-09T20:21:32;11.13;;;4.37;;
21624;SDS011;10974;51.034;3.744;2023-01-09T20:23:59;9.10;;;4.00;;
21624;SDS011;10974;51.034;3.744;2023-01-09T20:26:26;8.30;;;3.73;;
21624;SDS011;10974;51.034;3.744;2023-01-09T20:28:55;8.00;;;3.50;;
21624;SDS011;10974;51.034;3.744;2023-01-09T20:31:22;11.60;;;4.30;;
21624;SDS011;10974;51.034;3.744;2023-01-09T20:33:52;16.30;;;5.47;;
21624;SDS011;10974;51.034;3.744;2023-01-09T20:36:18;9.80;;;4.10;;
21624;SDS011;10974;51.034;3.744;2023-01-09T20:38:51;13.67;;;3.23;;
21624;SDS011;10974;51.034;3.744;2023-01-09T20:41:18;9.57;;;3.73;;
21624;SDS011;10974;51.034;3.744;2023-01-09T20:43:50;10.17;;;3.10;;
21624;SDS011;10974;51.034;3.744;2023-01-09T20:46:16;12.63;;;3.63;;
21624;SDS011;10974;51.034;3.744;2023-01-09T20:48:43;6.37;;;3.00;;
21624;SDS011;10974;51.034;3.744;2023-01-09T20:51:09;12.90;;;3.80;;
21624;SDS011;10974;51.034;3.744;2023-01-09T20:53:36;8.13;;;3.23;;
21624;SDS011;10974;51.034;3.744;2023-01-09T20:56:03;10.43;;;3.43;;
21624;SDS011;10974;51.034;3.744;2023-01-09T20:58:30;11.10;;;3.70;;
21624;SDS011;10974;51.034;3.744;2023-01-09T21:00:56;10.00;;;3.23;;
21624;SDS011;10974;51.034;3.744;2023-01-09T21:03:22;12.00;;;3.23;;